sensor_id;sensor_type;location;lat;lon;timestamp;P1;durP1;ratioP1;P2;durP2;ratioP2
20639;SDS011;10479;53.524;9.846;2023-04-24T00:02:06;10.68;;;7.70;;
20639;SDS011;10479;53.524;9.846;2023-04-24T00:04:34;12.15;;;7.88;;
20639;SDS011;10479;53.524;9.846;2023-04-24T00:07:00;12.75;;;7.53;;
20639;SDS011;10479;53.524;9.846;2023-04-24T00:09:25;11.63;;;7.20;;
20639;SDS011;10479;53.524;9.846;2023-04-24T00:11:51;11.57;;;7.60;;
20639;SDS011;10479;53.524;9.846;2023-04-24T00:14:17;11.82;;;7.72;;
20639;SDS011;10479;53.524;9.846;2023-04-24T00:16:43;12.85;;;8.15;;
20639;SDS011;10479;53.524;9.846;2023-04-24T00:19:08;11.63;;;7.43;;
20639;SDS011;10479;53.524;9.846;2023-04-24T00:21:34;10.45;;;6.65;;
20639;SDS011;10479;53.524;9.846;2023-04-24T00:24:00;10.52;;;7.35;;
20639;SDS011;10479;53.524;9.846;2023-04-24T00:26:25;11.18;;;7.10;;
20639;SDS011;10479;53.524;9.846;2023-04-24T00:28:50;12.15;;;7.88;;
20639;SDS011;10479;53.524;9.846;2023-04-24T00:31:16;14.18;;;8.32;;
20639;SDS011;10479;53.524;9.846;2023-04-24T00:33:41;15.95;;;7.50;;
20639;SDS011;10479;53.524;9.846;2023-04-24T00:36:07;14.93;;;8.65;;
20639;SDS011;10479;53.524;9.846;2023-04-24T00:38:32;11.93;;;8.25;;
20639;SDS011;10479;53.524;9.846;2023-04-24T00:40:58;11.70;;;7.60;;
20639;SDS011;10479;53.524;9.846;2023-04-24T00:43:23;12.60;;;8.32;;
20639;SDS011;10479;53.524;9.846;2023-04-24T00:45:49;14.05;;;8.52;;
20639;SDS011;10479;53.524;9.846;2023-04-24T00:48:14;12.35;;;8.00;;
20639;SDS011;10479;53.524;9.846;2023-04-24T00:50:40;10.60;;;7.32;;
20639;SDS011;10479;53.524;9.846;2023-04-24T00:53:05;12.85;;;7.80;;
20639;SDS011;10479;53.524;9.846;2023-04-24T00:55:31;12.43;;;7.55;;
20639;SDS011;10479;53.524;9.846;2023-04-24T00:57:57;12.85;;;7.68;;
20639;SDS011;10479;53.524;9.846;2023-04-24T01:00:22;15.15;;;7.85;;
20639;SDS011;10479;53.524;9.846;2023-04-24T01:02:48;11.75;;;7.25;;
20639;SDS011;10479;53.524;9.846;2023-04-24T01:05:15;10.32;;;6.88;;
20639;SDS011;10479;53.524;9.846;2023-04-24T01:07:43;10.35;;;5.72;;
20639;SDS011;10479;53.524;9.846;2023-04-24T01:10:10;11.40;;;5.78;;
20639;SDS011;10479;53.524;9.846;2023-04-24T01:12:36;7.57;;;4.85;;
20639;SDS011;10479;53.524;9.846;2023-04-24T01:15:02;8.75;;;4.90;;
20639;SDS011;10479;53.524;9.846;2023-04-24T01:17:28;8.85;;;4.20;;
20639;SDS011;10479;53.524;9.846;2023-04-24T01:19:54;6.75;;;3.97;;
20639;SDS011;10479;53.524;9.846;2023-04-24T01:22:22;6.68;;;3.78;;
20639;SDS011;10479;53.524;9.846;2023-04-24T01:24:48;6.05;;;4.07;;
20639;SDS011;10479;53.524;9.846;2023-04-24T01:27:13;7.18;;;4.05;;
20639;SDS011;10479;53.524;9.846;2023-04-24T01:29:39;7.63;;;4.20;;
20639;SDS011;10479;53.524;9.846;2023-04-24T01:32:05;5.70;;;3.70;;
20639;SDS011;10479;53.524;9.846;2023-04-24T01:34:30;6.70;;;3.75;;
20639;SDS011;10479;53.524;9.846;2023-04-24T01:36:56;4.63;;;3.42;;
20639;SDS011;10479;53.524;9.846;2023-04-24T01:39:21;5.50;;;3.40;;
20639;SDS011;10479;53.524;9.846;2023-04-24T01:41:54;8.05;;;3.75;;
20639;SDS011;10479;53.524;9.846;2023-04-24T01:44:20;6.00;;;3.20;;
20639;SDS011;10479;53.524;9.846;2023-04-24T01:46:46;6.10;;;3.20;;
20639;SDS011;10479;53.524;9.846;2023-04-24T01:49:11;7.15;;;3.15;;
20639;SDS011;10479;53.524;9.846;2023-04-24T01:51:37;4.90;;;2.85;;
20639;SDS011;10479;53.524;9.846;2023-04-24T01:54:03;4.15;;;2.55;;
20639;SDS011;10479;53.524;9.846;2023-04-24T01:56:28;4.47;;;2.58;;
20639;SDS011;10479;53.524;9.846;2023-04-24T01:58:54;5.15;;;2.58;;
20639;SDS011;10479;53.524;9.846;2023-04-24T02:01:20;5.00;;;2.70;;
20639;SDS011;10479;53.524;9.846;2023-04-24T02:03:46;5.65;;;2.20;;
20639;SDS011;10479;53.524;9.846;2023-04-24T02:06:11;4.18;;;2.30;;
20639;SDS011;10479;53.524;9.846;2023-04-24T02:08:37;4.65;;;2.10;;
20639;SDS011;10479;53.524;9.846;2023-04-24T02:11:02;5.00;;;2.40;;
20639;SDS011;10479;53.524;9.846;2023-04-24T02:13:28;3.40;;;2.13;;
20639;SDS011;10479;53.524;9.846;2023-04-24T02:15:53;4.40;;;2.38;;
20639;SDS011;10479;53.524;9.846;2023-04-24T02:18:19;4.43;;;2.60;;
20639;SDS011;10479;53.524;9.846;2023-04-24T02:20:44;5.35;;;2.63;;
20639;SDS011;10479;53.524;9.846;2023-04-24T02:23:10;5.90;;;2.58;;
20639;SDS011;10479;53.524;9.846;2023-04-24T02:25:36;5.03;;;2.35;;
20639;SDS011;10479;53.524;9.846;2023-04-24T02:28:01;3.95;;;2.20;;
20639;SDS011;10479;53.524;9.846;2023-04-24T02:30:28;5.40;;;2.45;;
20639;SDS011;10479;53.524;9.846;2023-04-24T02:32:53;4.18;;;2.20;;
20639;SDS011;10479;53.524;9.846;2023-04-24T02:35:19;3.75;;;2.22;;
20639;SDS011;10479;53.524;9.846;2023-04-24T02:37:45;4.40;;;2.50;;
20639;SDS011;10479;53.524;9.846;2023-04-24T02:40:10;4.47;;;2.22;;
20639;SDS011;10479;53.524;9.846;2023-04-24T02:42:36;5.28;;;2.35;;
20639;SDS011;10479;53.524;9.846;2023-04-24T02:45:01;6.65;;;2.70;;
20639;SDS011;10479;53.524;9.846;2023-04-24T02:47:26;5.70;;;2.60;;
20639;SDS011;10479;53.524;9.846;2023-04-24T02:49:52;5.47;;;2.97;;
20639;SDS011;10479;53.524;9.846;2023-04-24T02:52:17;4.53;;;2.75;;
20639;SDS011;10479;53.524;9.846;2023-04-24T02:54:43;5.28;;;2.92;;
20639;SDS011;10479;53.524;9.846;2023-04-24T02:57:08;4.82;;;2.78;;
20639;SDS011;10479;53.524;9.846;2023-04-24T02:59:34;5.85;;;2.92;;
20639;SDS011;10479;53.524;9.846;2023-04-24T03:01:59;5.50;;;3.10;;
20639;SDS011;10479;53.524;9.846;2023-04-24T03:04:25;4.93;;;2.75;;
20639;SDS011;10479;53.524;9.846;2023-04-24T03:06:51;5.13;;;2.50;;
20639;SDS011;10479;53.524;9.846;2023-04-24T03:09:20;4.13;;;2.40;;
20639;SDS011;10479;53.524;9.846;2023-04-24T03:11:46;5.07;;;2.78;;
20639;SDS011;10479;53.524;9.846;2023-04-24T03:14:11;3.83;;;2.22;;
20639;SDS011;10479;53.524;9.846;2023-04-24T03:16:37;4.20;;;2.33;;
20639;SDS011;10479;53.524;9.846;2023-04-24T03:19:02;5.18;;;2.20;;
20639;SDS011;10479;53.524;9.846;2023-04-24T03:21:28;4.18;;;2.25;;
20639;SDS011;10479;53.524;9.846;2023-04-24T03:23:53;4.40;;;2.40;;
20639;SDS011;10479;53.524;9.846;2023-04-24T03:26:19;3.88;;;2.33;;
20639;SDS011;10479;53.524;9.846;2023-04-24T03:28:45;6.28;;;1.92;;
20639;SDS011;10479;53.524;9.846;2023-04-24T03:31:10;5.38;;;2.50;;
20639;SDS011;10479;53.524;9.846;2023-04-24T03:33:36;4.13;;;1.90;;
20639;SDS011;10479;53.524;9.846;2023-04-24T03:36:01;5.55;;;1.90;;
20639;SDS011;10479;53.524;9.846;2023-04-24T03:38:27;4.45;;;2.00;;
20639;SDS011;10479;53.524;9.846;2023-04-24T03:40:52;3.90;;;1.85;;
20639;SDS011;10479;53.524;9.846;2023-04-24T03:43:18;6.95;;;2.20;;
20639;SDS011;10479;53.524;9.846;2023-04-24T03:45:43;3.58;;;2.22;;
20639;SDS011;10479;53.524;9.846;2023-04-24T03:48:08;3.75;;;2.10;;
20639;SDS011;10479;53.524;9.846;2023-04-24T03:50:34;3.70;;;2.10;;
20639;SDS011;10479;53.524;9.846;2023-04-24T03:52:59;3.83;;;2.20;;
20639;SDS011;10479;53.524;9.846;2023-04-24T03:55:25;3.22;;;2.10;;
20639;SDS011;10479;53.524;9.846;2023-04-24T03:57:50;3.70;;;2.05;;
20639;SDS011;10479;53.524;9.846;2023-04-24T04:00:16;7.47;;;2.00;;
20639;SDS011;10479;53.524;9.846;2023-04-24T04:02:41;3.20;;;1.90;;
20639;SDS011;10479;53.524;9.846;2023-04-24T04:05:07;5.45;;;2.10;;
20639;SDS011;10479;53.524;9.846;2023-04-24T04:07:33;7.20;;;1.85;;
20639;SDS011;10479;53.524;9.846;2023-04-24T04:09:58;3.00;;;1.77;;
20639;SDS011;10479;53.524;9.846;2023-04-24T04:12:24;3.47;;;1.80;;
20639;SDS011;10479;53.524;9.846;2023-04-24T04:14:49;3.25;;;1.75;;
20639;SDS011;10479;53.524;9.846;2023-04-24T04:17:15;3.60;;;1.90;;
20639;SDS011;10479;53.524;9.846;2023-04-24T04:19:40;2.90;;;1.80;;
20639;SDS011;10479;53.524;9.846;2023-04-24T04:22:07;3.90;;;2.00;;
20639;SDS011;10479;53.524;9.846;2023-04-24T04:24:33;5.28;;;2.10;;
20639;SDS011;10479;53.524;9.846;2023-04-24T04:27:03;3.65;;;2.00;;
20639;SDS011;10479;53.524;9.846;2023-04-24T04:29:29;2.95;;;1.70;;
20639;SDS011;10479;53.524;9.846;2023-04-24T04:31:56;3.60;;;1.85;;
20639;SDS011;10479;53.524;9.846;2023-04-24T04:34:22;4.07;;;1.80;;
20639;SDS011;10479;53.524;9.846;2023-04-24T04:36:48;3.55;;;1.80;;
20639;SDS011;10479;53.524;9.846;2023-04-24T04:39:13;3.35;;;1.75;;
20639;SDS011;10479;53.524;9.846;2023-04-24T04:41:40;3.28;;;1.73;;
20639;SDS011;10479;53.524;9.846;2023-04-24T04:44:06;3.55;;;1.88;;
20639;SDS011;10479;53.524;9.846;2023-04-24T04:46:33;3.25;;;1.60;;
20639;SDS011;10479;53.524;9.846;2023-04-24T04:49:00;3.70;;;1.98;;
20639;SDS011;10479;53.524;9.846;2023-04-24T04:51:26;3.83;;;1.50;;
20639;SDS011;10479;53.524;9.846;2023-04-24T04:53:52;3.88;;;1.70;;
20639;SDS011;10479;53.524;9.846;2023-04-24T04:56:18;2.90;;;1.58;;
20639;SDS011;10479;53.524;9.846;2023-04-24T04:58:43;3.33;;;1.65;;
20639;SDS011;10479;53.524;9.846;2023-04-24T05:01:08;2.88;;;1.80;;
20639;SDS011;10479;53.524;9.846;2023-04-24T05:03:34;3.30;;;1.42;;
20639;SDS011;10479;53.524;9.846;2023-04-24T05:05:59;2.83;;;1.45;;
20639;SDS011;10479;53.524;9.846;2023-04-24T05:08:25;3.28;;;1.70;;
20639;SDS011;10479;53.524;9.846;2023-04-24T05:10:50;3.00;;;1.48;;
20639;SDS011;10479;53.524;9.846;2023-04-24T05:13:16;5.30;;;1.60;;
20639;SDS011;10479;53.524;9.846;2023-04-24T05:15:41;2.83;;;1.15;;
20639;SDS011;10479;53.524;9.846;2023-04-24T05:18:06;2.47;;;1.25;;
20639;SDS011;10479;53.524;9.846;2023-04-24T05:20:32;3.30;;;1.50;;
20639;SDS011;10479;53.524;9.846;2023-04-24T05:22:57;4.30;;;1.27;;
20639;SDS011;10479;53.524;9.846;2023-04-24T05:25:23;3.20;;;1.08;;
20639;SDS011;10479;53.524;9.846;2023-04-24T05:27:48;3.95;;;1.30;;
20639;SDS011;10479;53.524;9.846;2023-04-24T05:30:14;2.70;;;1.20;;
20639;SDS011;10479;53.524;9.846;2023-04-24T05:32:39;2.75;;;1.40;;
20639;SDS011;10479;53.524;9.846;2023-04-24T05:35:05;3.03;;;1.20;;
20639;SDS011;10479;53.524;9.846;2023-04-24T05:37:30;4.47;;;0.98;;
20639;SDS011;10479;53.524;9.846;2023-04-24T05:39:56;2.38;;;1.00;;
20639;SDS011;10479;53.524;9.846;2023-04-24T05:42:21;3.65;;;1.30;;
20639;SDS011;10479;53.524;9.846;2023-04-24T05:44:46;2.83;;;0.98;;
20639;SDS011;10479;53.524;9.846;2023-04-24T05:47:12;2.25;;;1.10;;
20639;SDS011;10479;53.524;9.846;2023-04-24T05:49:37;2.10;;;1.10;;
20639;SDS011;10479;53.524;9.846;2023-04-24T05:52:03;2.88;;;1.25;;
20639;SDS011;10479;53.524;9.846;2023-04-24T05:54:30;2.70;;;1.20;;
20639;SDS011;10479;53.524;9.846;2023-04-24T05:56:56;5.53;;;1.50;;
20639;SDS011;10479;53.524;9.846;2023-04-24T05:59:21;4.00;;;1.45;;
20639;SDS011;10479;53.524;9.846;2023-04-24T06:01:46;3.55;;;1.20;;
20639;SDS011;10479;53.524;9.846;2023-04-24T06:04:12;3.70;;;1.40;;
20639;SDS011;10479;53.524;9.846;2023-04-24T06:06:39;2.50;;;1.30;;
20639;SDS011;10479;53.524;9.846;2023-04-24T06:09:05;3.35;;;1.20;;
20639;SDS011;10479;53.524;9.846;2023-04-24T06:11:30;3.78;;;1.30;;
20639;SDS011;10479;53.524;9.846;2023-04-24T06:13:55;3.00;;;1.30;;
20639;SDS011;10479;53.524;9.846;2023-04-24T06:16:21;2.45;;;1.30;;
20639;SDS011;10479;53.524;9.846;2023-04-24T06:18:48;3.17;;;1.60;;
20639;SDS011;10479;53.524;9.846;2023-04-24T06:21:15;2.88;;;1.50;;
20639;SDS011;10479;53.524;9.846;2023-04-24T06:23:41;2.88;;;1.58;;
20639;SDS011;10479;53.524;9.846;2023-04-24T06:26:06;3.55;;;1.80;;
20639;SDS011;10479;53.524;9.846;2023-04-24T06:28:32;4.28;;;1.60;;
20639;SDS011;10479;53.524;9.846;2023-04-24T06:30:57;4.47;;;1.55;;
20639;SDS011;10479;53.524;9.846;2023-04-24T06:33:23;3.63;;;1.77;;
20639;SDS011;10479;53.524;9.846;2023-04-24T06:35:48;5.82;;;1.73;;
20639;SDS011;10479;53.524;9.846;2023-04-24T06:38:13;2.92;;;1.58;;
20639;SDS011;10479;53.524;9.846;2023-04-24T06:40:39;3.10;;;1.60;;
20639;SDS011;10479;53.524;9.846;2023-04-24T06:43:05;3.80;;;2.10;;
20639;SDS011;10479;53.524;9.846;2023-04-24T06:45:31;4.32;;;1.98;;
20639;SDS011;10479;53.524;9.846;2023-04-24T06:47:56;4.03;;;1.88;;
20639;SDS011;10479;53.524;9.846;2023-04-24T06:50:22;3.67;;;2.00;;
20639;SDS011;10479;53.524;9.846;2023-04-24T06:52:47;3.33;;;1.80;;
20639;SDS011;10479;53.524;9.846;2023-04-24T06:55:13;3.30;;;1.90;;
20639;SDS011;10479;53.524;9.846;2023-04-24T06:57:40;4.75;;;2.22;;
20639;SDS011;10479;53.524;9.846;2023-04-24T07:00:06;6.13;;;2.50;;
20639;SDS011;10479;53.524;9.846;2023-04-24T07:02:32;4.93;;;2.75;;
20639;SDS011;10479;53.524;9.846;2023-04-24T07:04:57;4.03;;;2.33;;
20639;SDS011;10479;53.524;9.846;2023-04-24T07:07:23;4.63;;;2.72;;
20639;SDS011;10479;53.524;9.846;2023-04-24T07:09:48;5.47;;;2.78;;
20639;SDS011;10479;53.524;9.846;2023-04-24T07:12:15;4.75;;;3.08;;
20639;SDS011;10479;53.524;9.846;2023-04-24T07:14:42;6.18;;;3.25;;
20639;SDS011;10479;53.524;9.846;2023-04-24T07:17:07;4.80;;;3.05;;
20639;SDS011;10479;53.524;9.846;2023-04-24T07:19:33;5.75;;;2.95;;
20639;SDS011;10479;53.524;9.846;2023-04-24T07:22:00;5.90;;;3.40;;
20639;SDS011;10479;53.524;9.846;2023-04-24T07:24:25;4.78;;;2.78;;
20639;SDS011;10479;53.524;9.846;2023-04-24T07:26:51;6.57;;;3.60;;
20639;SDS011;10479;53.524;9.846;2023-04-24T07:29:17;4.32;;;2.80;;
20639;SDS011;10479;53.524;9.846;2023-04-24T07:31:43;6.43;;;3.55;;
20639;SDS011;10479;53.524;9.846;2023-04-24T07:34:09;6.18;;;3.72;;
20639;SDS011;10479;53.524;9.846;2023-04-24T07:36:34;7.75;;;4.32;;
20639;SDS011;10479;53.524;9.846;2023-04-24T07:39:00;6.95;;;4.18;;
20639;SDS011;10479;53.524;9.846;2023-04-24T07:41:25;7.85;;;4.90;;
20639;SDS011;10479;53.524;9.846;2023-04-24T07:43:52;7.10;;;4.90;;
20639;SDS011;10479;53.524;9.846;2023-04-24T07:46:18;7.78;;;4.30;;
20639;SDS011;10479;53.524;9.846;2023-04-24T07:48:44;6.70;;;4.70;;
20639;SDS011;10479;53.524;9.846;2023-04-24T07:51:11;10.30;;;4.90;;
20639;SDS011;10479;53.524;9.846;2023-04-24T07:53:38;8.00;;;4.95;;
20639;SDS011;10479;53.524;9.846;2023-04-24T07:56:04;8.32;;;4.38;;
20639;SDS011;10479;53.524;9.846;2023-04-24T07:58:29;7.43;;;5.18;;
20639;SDS011;10479;53.524;9.846;2023-04-24T08:00:55;7.70;;;4.53;;
20639;SDS011;10479;53.524;9.846;2023-04-24T08:03:20;7.10;;;4.90;;
20639;SDS011;10479;53.524;9.846;2023-04-24T08:05:46;8.90;;;5.50;;
20639;SDS011;10479;53.524;9.846;2023-04-24T08:08:12;8.63;;;4.85;;
20639;SDS011;10479;53.524;9.846;2023-04-24T08:10:37;7.82;;;5.03;;
20639;SDS011;10479;53.524;9.846;2023-04-24T08:13:03;9.43;;;5.95;;
20639;SDS011;10479;53.524;9.846;2023-04-24T08:15:28;8.02;;;4.78;;
20639;SDS011;10479;53.524;9.846;2023-04-24T08:17:53;8.15;;;5.72;;
20639;SDS011;10479;53.524;9.846;2023-04-24T08:20:19;6.65;;;5.00;;
20639;SDS011;10479;53.524;9.846;2023-04-24T08:22:44;8.35;;;5.00;;
20639;SDS011;10479;53.524;9.846;2023-04-24T08:25:12;8.90;;;4.72;;
20639;SDS011;10479;53.524;9.846;2023-04-24T08:27:37;9.95;;;4.95;;
20639;SDS011;10479;53.524;9.846;2023-04-24T08:30:04;8.20;;;4.07;;
20639;SDS011;10479;53.524;9.846;2023-04-24T08:32:31;7.60;;;5.00;;
20639;SDS011;10479;53.524;9.846;2023-04-24T08:34:57;9.95;;;5.57;;
20639;SDS011;10479;53.524;9.846;2023-04-24T08:37:23;8.43;;;5.63;;
20639;SDS011;10479;53.524;9.846;2023-04-24T08:39:49;9.98;;;5.85;;
20639;SDS011;10479;53.524;9.846;2023-04-24T08:42:14;10.00;;;5.93;;
20639;SDS011;10479;53.524;9.846;2023-04-24T08:44:41;11.95;;;6.10;;
20639;SDS011;10479;53.524;9.846;2023-04-24T08:47:07;11.63;;;5.72;;
20639;SDS011;10479;53.524;9.846;2023-04-24T08:49:33;9.50;;;6.80;;
20639;SDS011;10479;53.524;9.846;2023-04-24T08:51:59;10.35;;;5.68;;
20639;SDS011;10479;53.524;9.846;2023-04-24T08:54:25;9.77;;;6.72;;
20639;SDS011;10479;53.524;9.846;2023-04-24T08:56:50;9.75;;;5.32;;
20639;SDS011;10479;53.524;9.846;2023-04-24T08:59:18;11.45;;;6.55;;
20639;SDS011;10479;53.524;9.846;2023-04-24T09:01:44;10.05;;;6.28;;
20639;SDS011;10479;53.524;9.846;2023-04-24T09:04:10;11.85;;;6.68;;
20639;SDS011;10479;53.524;9.846;2023-04-24T09:06:37;12.60;;;6.63;;
20639;SDS011;10479;53.524;9.846;2023-04-24T09:09:03;8.43;;;6.10;;
20639;SDS011;10479;53.524;9.846;2023-04-24T09:11:29;9.63;;;6.60;;
20639;SDS011;10479;53.524;9.846;2023-04-24T09:13:56;9.15;;;6.00;;
20639;SDS011;10479;53.524;9.846;2023-04-24T09:16:21;10.35;;;6.07;;
20639;SDS011;10479;53.524;9.846;2023-04-24T09:18:49;10.43;;;6.43;;
20639;SDS011;10479;53.524;9.846;2023-04-24T09:21:15;9.95;;;6.63;;
20639;SDS011;10479;53.524;9.846;2023-04-24T09:23:40;10.38;;;5.63;;
20639;SDS011;10479;53.524;9.846;2023-04-24T09:26:06;9.63;;;5.93;;
20639;SDS011;10479;53.524;9.846;2023-04-24T09:28:38;9.13;;;6.47;;
20639;SDS011;10479;53.524;9.846;2023-04-24T09:31:08;9.13;;;6.00;;
20639;SDS011;10479;53.524;9.846;2023-04-24T09:33:35;11.27;;;6.57;;
20639;SDS011;10479;53.524;9.846;2023-04-24T09:36:01;12.80;;;6.75;;
20639;SDS011;10479;53.524;9.846;2023-04-24T09:38:45;11.75;;;6.15;;
20639;SDS011;10479;53.524;9.846;2023-04-24T09:41:13;12.75;;;7.68;;
20639;SDS011;10479;53.524;9.846;2023-04-24T09:43:38;9.88;;;7.22;;
20639;SDS011;10479;53.524;9.846;2023-04-24T09:46:07;10.68;;;6.70;;
20639;SDS011;10479;53.524;9.846;2023-04-24T09:48:35;10.93;;;7.10;;
20639;SDS011;10479;53.524;9.846;2023-04-24T09:51:02;11.70;;;7.40;;
20639;SDS011;10479;53.524;9.846;2023-04-24T09:53:29;11.02;;;7.22;;
20639;SDS011;10479;53.524;9.846;2023-04-24T09:55:56;12.65;;;6.78;;
20639;SDS011;10479;53.524;9.846;2023-04-24T09:58:28;13.38;;;7.47;;
20639;SDS011;10479;53.524;9.846;2023-04-24T10:00:54;16.13;;;8.18;;
20639;SDS011;10479;53.524;9.846;2023-04-24T10:03:21;12.93;;;8.07;;
20639;SDS011;10479;53.524;9.846;2023-04-24T10:05:49;15.70;;;8.73;;
20639;SDS011;10479;53.524;9.846;2023-04-24T10:08:16;14.50;;;8.30;;
20639;SDS011;10479;53.524;9.846;2023-04-24T10:10:43;16.92;;;9.13;;
20639;SDS011;10479;53.524;9.846;2023-04-24T10:13:09;17.60;;;9.88;;
20639;SDS011;10479;53.524;9.846;2023-04-24T10:15:36;18.65;;;10.38;;
20639;SDS011;10479;53.524;9.846;2023-04-24T10:18:02;16.45;;;9.98;;
20639;SDS011;10479;53.524;9.846;2023-04-24T10:20:30;16.60;;;9.60;;
20639;SDS011;10479;53.524;9.846;2023-04-24T10:22:56;15.85;;;9.75;;
20639;SDS011;10479;53.524;9.846;2023-04-24T10:25:24;17.40;;;10.10;;
20639;SDS011;10479;53.524;9.846;2023-04-24T10:27:51;16.08;;;9.48;;
20639;SDS011;10479;53.524;9.846;2023-04-24T10:30:18;24.80;;;10.73;;
20639;SDS011;10479;53.524;9.846;2023-04-24T10:32:44;17.23;;;10.40;;
20639;SDS011;10479;53.524;9.846;2023-04-24T10:35:12;16.33;;;9.40;;
20639;SDS011;10479;53.524;9.846;2023-04-24T10:37:45;20.30;;;10.38;;
20639;SDS011;10479;53.524;9.846;2023-04-24T10:40:17;18.05;;;10.63;;
20639;SDS011;10479;53.524;9.846;2023-04-24T10:42:46;15.07;;;9.82;;
20639;SDS011;10479;53.524;9.846;2023-04-24T10:45:16;16.95;;;9.35;;
20639;SDS011;10479;53.524;9.846;2023-04-24T10:47:50;16.50;;;10.05;;
20639;SDS011;10479;53.524;9.846;2023-04-24T10:50:23;17.80;;;9.98;;
20639;SDS011;10479;53.524;9.846;2023-04-24T10:52:50;14.73;;;9.95;;
20639;SDS011;10479;53.524;9.846;2023-04-24T10:55:39;16.98;;;9.85;;
20639;SDS011;10479;53.524;9.846;2023-04-24T10:58:13;17.67;;;9.85;;
20639;SDS011;10479;53.524;9.846;2023-04-24T11:00:40;15.50;;;9.02;;
20639;SDS011;10479;53.524;9.846;2023-04-24T11:03:09;15.32;;;10.20;;
20639;SDS011;10479;53.524;9.846;2023-04-24T11:05:49;15.70;;;8.80;;
20639;SDS011;10479;53.524;9.846;2023-04-24T11:08:23;12.75;;;7.85;;
20639;SDS011;10479;53.524;9.846;2023-04-24T11:10:59;19.63;;;8.82;;
20639;SDS011;10479;53.524;9.846;2023-04-24T11:18:52;16.60;;;8.50;;
20639;SDS011;10479;53.524;9.846;2023-04-24T11:21:25;17.10;;;9.63;;
20639;SDS011;10479;53.524;9.846;2023-04-24T11:23:51;15.40;;;8.52;;
20639;SDS011;10479;53.524;9.846;2023-04-24T11:26:23;13.63;;;8.45;;
20639;SDS011;10479;53.524;9.846;2023-04-24T11:29:05;16.70;;;8.85;;
20639;SDS011;10479;53.524;9.846;2023-04-24T11:31:41;15.63;;;9.23;;
20639;SDS011;10479;53.524;9.846;2023-04-24T11:34:15;16.63;;;9.70;;
20639;SDS011;10479;53.524;9.846;2023-04-24T11:36:47;15.77;;;9.48;;
20639;SDS011;10479;53.524;9.846;2023-04-24T11:39:13;13.77;;;8.85;;
20639;SDS011;10479;53.524;9.846;2023-04-24T11:41:39;17.23;;;9.40;;
20639;SDS011;10479;53.524;9.846;2023-04-24T11:44:06;14.00;;;9.02;;
20639;SDS011;10479;53.524;9.846;2023-04-24T11:46:34;13.52;;;7.15;;
20639;SDS011;10479;53.524;9.846;2023-04-24T11:48:59;12.82;;;7.57;;
20639;SDS011;10479;53.524;9.846;2023-04-24T11:51:25;12.30;;;7.65;;
20639;SDS011;10479;53.524;9.846;2023-04-24T11:53:52;12.27;;;7.50;;
20639;SDS011;10479;53.524;9.846;2023-04-24T11:56:19;10.60;;;7.22;;
20639;SDS011;10479;53.524;9.846;2023-04-24T11:58:47;12.70;;;6.80;;
20639;SDS011;10479;53.524;9.846;2023-04-24T12:01:13;10.65;;;6.75;;
20639;SDS011;10479;53.524;9.846;2023-04-24T12:03:38;13.30;;;7.65;;
20639;SDS011;10479;53.524;9.846;2023-04-24T12:06:11;11.00;;;7.20;;
20639;SDS011;10479;53.524;9.846;2023-04-24T12:08:37;11.60;;;7.38;;
20639;SDS011;10479;53.524;9.846;2023-04-24T12:11:03;14.15;;;7.57;;
20639;SDS011;10479;53.524;9.846;2023-04-24T12:13:39;12.93;;;7.78;;
20639;SDS011;10479;53.524;9.846;2023-04-24T12:16:04;13.75;;;7.82;;
20639;SDS011;10479;53.524;9.846;2023-04-24T12:18:30;14.65;;;8.68;;
20639;SDS011;10479;53.524;9.846;2023-04-24T12:21:14;11.23;;;7.15;;
20639;SDS011;10479;53.524;9.846;2023-04-24T12:23:57;12.27;;;7.80;;
20639;SDS011;10479;53.524;9.846;2023-04-24T12:26:23;12.05;;;7.55;;
20639;SDS011;10479;53.524;9.846;2023-04-24T12:28:49;12.80;;;7.88;;
20639;SDS011;10479;53.524;9.846;2023-04-24T12:31:17;13.07;;;8.65;;
20639;SDS011;10479;53.524;9.846;2023-04-24T12:33:45;13.05;;;8.48;;
20639;SDS011;10479;53.524;9.846;2023-04-24T12:36:11;12.90;;;7.75;;
20639;SDS011;10479;53.524;9.846;2023-04-24T12:38:37;14.90;;;7.57;;
20639;SDS011;10479;53.524;9.846;2023-04-24T12:43:31;14.13;;;7.15;;
20639;SDS011;10479;53.524;9.846;2023-04-24T12:45:57;11.73;;;7.35;;
20639;SDS011;10479;53.524;9.846;2023-04-24T12:48:24;10.88;;;6.60;;
20639;SDS011;10479;53.524;9.846;2023-04-24T12:50:53;11.88;;;7.13;;
20639;SDS011;10479;53.524;9.846;2023-04-24T12:53:18;10.57;;;6.65;;
20639;SDS011;10479;53.524;9.846;2023-04-24T12:55:44;10.38;;;6.38;;
20639;SDS011;10479;53.524;9.846;2023-04-24T12:58:10;10.38;;;6.65;;
20639;SDS011;10479;53.524;9.846;2023-04-24T13:00:35;12.15;;;6.32;;
20639;SDS011;10479;53.524;9.846;2023-04-24T13:03:01;11.95;;;6.13;;
20639;SDS011;10479;53.524;9.846;2023-04-24T13:05:27;8.75;;;6.07;;
20639;SDS011;10479;53.524;9.846;2023-04-24T13:07:52;9.77;;;6.28;;
20639;SDS011;10479;53.524;9.846;2023-04-24T13:10:18;10.15;;;5.50;;
20639;SDS011;10479;53.524;9.846;2023-04-24T13:12:44;9.20;;;5.65;;
20639;SDS011;10479;53.524;9.846;2023-04-24T13:15:11;8.55;;;4.93;;
20639;SDS011;10479;53.524;9.846;2023-04-24T13:17:36;9.73;;;6.25;;
20639;SDS011;10479;53.524;9.846;2023-04-24T13:20:02;9.75;;;5.55;;
20639;SDS011;10479;53.524;9.846;2023-04-24T13:22:28;9.88;;;5.07;;
20639;SDS011;10479;53.524;9.846;2023-04-24T13:24:53;8.57;;;5.80;;
20639;SDS011;10479;53.524;9.846;2023-04-24T13:27:19;15.27;;;6.70;;
20639;SDS011;10479;53.524;9.846;2023-04-24T13:29:45;9.82;;;5.70;;
20639;SDS011;10479;53.524;9.846;2023-04-24T13:32:11;9.05;;;5.85;;
20639;SDS011;10479;53.524;9.846;2023-04-24T13:34:37;9.25;;;5.95;;
20639;SDS011;10479;53.524;9.846;2023-04-24T13:37:02;8.85;;;6.07;;
20639;SDS011;10479;53.524;9.846;2023-04-24T13:39:31;10.00;;;6.40;;
20639;SDS011;10479;53.524;9.846;2023-04-24T13:41:57;9.60;;;6.50;;
20639;SDS011;10479;53.524;9.846;2023-04-24T13:44:23;8.93;;;6.13;;
20639;SDS011;10479;53.524;9.846;2023-04-24T13:46:49;9.30;;;6.60;;
20639;SDS011;10479;53.524;9.846;2023-04-24T13:49:16;9.80;;;6.43;;
20639;SDS011;10479;53.524;9.846;2023-04-24T13:51:42;8.55;;;5.90;;
20639;SDS011;10479;53.524;9.846;2023-04-24T13:54:08;7.85;;;5.05;;
20639;SDS011;10479;53.524;9.846;2023-04-24T13:56:33;10.18;;;5.45;;
20639;SDS011;10479;53.524;9.846;2023-04-24T13:58:58;8.57;;;5.82;;
20639;SDS011;10479;53.524;9.846;2023-04-24T14:01:24;8.02;;;5.18;;
20639;SDS011;10479;53.524;9.846;2023-04-24T14:03:50;11.55;;;6.57;;
20639;SDS011;10479;53.524;9.846;2023-04-24T14:06:17;12.30;;;6.13;;
20639;SDS011;10479;53.524;9.846;2023-04-24T14:08:46;9.00;;;5.80;;
20639;SDS011;10479;53.524;9.846;2023-04-24T14:11:11;15.48;;;5.32;;
20639;SDS011;10479;53.524;9.846;2023-04-24T14:13:37;10.20;;;6.90;;
20639;SDS011;10479;53.524;9.846;2023-04-24T14:16:04;19.17;;;6.80;;
20639;SDS011;10479;53.524;9.846;2023-04-24T14:18:29;8.73;;;6.15;;
20639;SDS011;10479;53.524;9.846;2023-04-24T14:20:55;10.27;;;6.60;;
20639;SDS011;10479;53.524;9.846;2023-04-24T14:23:20;11.35;;;7.25;;
20639;SDS011;10479;53.524;9.846;2023-04-24T14:25:46;11.30;;;7.50;;
20639;SDS011;10479;53.524;9.846;2023-04-24T14:28:15;13.27;;;8.32;;
20639;SDS011;10479;53.524;9.846;2023-04-24T14:30:41;12.98;;;8.40;;
20639;SDS011;10479;53.524;9.846;2023-04-24T14:33:07;11.50;;;8.10;;
20639;SDS011;10479;53.524;9.846;2023-04-24T14:35:32;12.73;;;7.85;;
20639;SDS011;10479;53.524;9.846;2023-04-24T14:37:59;12.10;;;8.15;;
20639;SDS011;10479;53.524;9.846;2023-04-24T14:40:25;13.68;;;9.18;;
20639;SDS011;10479;53.524;9.846;2023-04-24T14:42:51;14.70;;;10.15;;
20639;SDS011;10479;53.524;9.846;2023-04-24T14:45:16;16.08;;;9.95;;
20639;SDS011;10479;53.524;9.846;2023-04-24T14:47:42;15.55;;;10.40;;